createdAt,value
2023-06-29T00:04:28.736Z,100409.53
2023-06-29T00:09:30.305Z,100410.72
2023-06-29T00:14:31.782Z,100402.66
2023-06-29T00:19:33.305Z,100398.41
2023-06-29T00:24:43.214Z,100402.78
2023-06-29T00:29:44.919Z,100399.28
2023-06-29T00:34:46.456Z,100396.00
2023-06-29T00:39:47.914Z,100393.94
2023-06-29T00:44:51.072Z,100392.50
2023-06-29T00:49:52.725Z,100383.44
2023-06-29T00:54:59.304Z,100374.22
2023-06-29T01:00:01.953Z,100370.75
2023-06-29T01:05:05.926Z,100372.56
2023-06-29T01:10:10.903Z,100376.16
2023-06-29T01:15:12.688Z,100357.13
2023-06-29T01:20:15.329Z,100357.34
2023-06-29T01:25:16.942Z,100358.63
2023-06-29T01:30:18.888Z,100348.97
2023-06-29T01:35:20.347Z,100350.25
2023-06-29T01:40:27.257Z,100351.09
2023-06-29T01:45:28.925Z,100349.44
2023-06-29T01:50:31.668Z,100348.06
2023-06-29T01:55:34.052Z,100349.97
2023-06-29T02:00:38.581Z,100342.88
2023-06-29T02:05:40.375Z,100344.63
2023-06-29T02:10:41.857Z,100341.31
2023-06-29T02:15:43.465Z,100340.75
2023-06-29T02:20:45.079Z,100345.00
2023-06-29T02:25:46.533Z,100344.16
2023-06-29T02:30:48.136Z,100342.69
2023-06-29T02:35:49.680Z,100347.47
2023-06-29T02:40:51.527Z,100343.41
2023-06-29T02:45:52.995Z,100337.75
2023-06-29T02:50:54.580Z,100328.53
2023-06-29T02:55:56.047Z,100342.94
2023-06-29T03:00:57.626Z,100333.09
2023-06-29T03:05:59.164Z,100332.41
2023-06-29T03:11:00.699Z,100329.13
2023-06-29T03:16:02.416Z,100325.59
2023-06-29T03:21:15.912Z,100326.22
2023-06-29T03:26:18.826Z,100328.63
2023-06-29T03:31:20.385Z,100323.19
2023-06-29T03:36:21.964Z,100329.56
2023-06-29T03:41:23.417Z,100333.53
2023-06-29T03:46:25.336Z,100329.13
2023-06-29T03:51:26.795Z,100323.63
2023-06-29T03:56:28.302Z,100322.53
2023-06-29T04:01:29.814Z,100317.91
2023-06-29T04:06:31.336Z,100312.03
2023-06-29T04:11:32.799Z,100306.84
2023-06-29T04:16:34.339Z,100306.59
2023-06-29T04:21:36.692Z,100302.63
2023-06-29T04:26:39.952Z,100296.22
2023-06-29T04:31:41.418Z,100300.81
2023-06-29T04:36:46.998Z,100305.38
2023-06-29T04:41:48.482Z,100307.91
2023-06-29T04:46:49.979Z,100307.66
2023-06-29T04:51:51.466Z,100312.03
2023-06-29T04:56:52.937Z,100303.34
2023-06-29T05:01:54.446Z,100296.63
2023-06-29T05:06:56.029Z,100298.28
2023-06-29T05:11:57.531Z,100287.09
2023-06-29T05:16:59.189Z,100284.09
2023-06-29T05:22:01.556Z,100273.38
2023-06-29T05:27:03.012Z,100273.25
2023-06-29T05:32:05.197Z,100258.25
2023-06-29T05:37:06.700Z,100251.72
2023-06-29T05:42:08.300Z,100249.34
2023-06-29T05:47:10.382Z,100252.25
2023-06-29T05:52:11.920Z,100245.81
2023-06-29T05:57:13.500Z,100244.56
2023-06-29T06:02:15.144Z,100244.88
2023-06-29T06:07:27.578Z,100247.38
2023-06-29T06:12:29.068Z,100249.50
2023-06-29T06:17:30.571Z,100242.81
2023-06-29T06:22:32.188Z,100232.44
2023-06-29T06:27:33.773Z,100225.06
2023-06-29T06:32:35.351Z,100230.88
2023-06-29T06:37:37.898Z,100230.50
2023-06-29T06:42:40.395Z,100235.66
2023-06-29T06:47:41.858Z,100223.84
2023-06-29T06:52:43.395Z,100227.09
2023-06-29T06:57:44.858Z,100222.44
2023-06-29T07:02:46.860Z,100220.44
2023-06-29T07:07:48.646Z,100217.72
2023-06-29T07:12:50.217Z,100218.00
2023-06-29T07:17:51.840Z,100218.13
2023-06-29T07:27:57.703Z,100199.41
2023-06-29T07:32:59.194Z,100206.69
2023-06-29T07:38:00.735Z,100205.03
2023-06-29T07:43:02.187Z,100203.97
2023-06-29T07:48:03.937Z,100200.72
2023-06-29T07:53:05.520Z,100200.44
2023-06-29T08:03:11.580Z,100187.84
2023-06-29T08:08:13.732Z,100191.25
2023-06-29T08:13:16.703Z,100193.72
2023-06-29T08:18:18.207Z,100186.47
2023-06-29T08:23:19.705Z,100183.59
2023-06-29T08:28:21.220Z,100194.94
2023-06-29T08:33:24.947Z,100186.16
2023-06-29T08:38:26.903Z,100188.09
2023-06-29T08:43:28.378Z,100192.56
2023-06-29T08:48:32.646Z,100197.09
2023-06-29T08:53:35.167Z,100191.16
2023-06-29T08:58:37.707Z,100184.44
2023-06-29T09:03:41.098Z,100186.38
2023-06-29T09:08:42.855Z,100191.34
2023-06-29T09:13:47.272Z,100172.81
2023-06-29T09:18:55.375Z,100176.78
2023-06-29T09:23:59.080Z,100173.94
2023-06-29T09:29:04.998Z,100175.59
2023-06-29T09:34:20.839Z,100169.78
2023-06-29T09:39:22.739Z,100173.31
2023-06-29T09:44:26.182Z,100166.16
2023-06-29T09:49:27.811Z,100177.25
2023-06-29T09:54:29.434Z,100178.44
2023-06-29T09:59:35.508Z,100173.50
2023-06-29T10:04:37.524Z,100169.66
2023-06-29T10:09:42.715Z,100171.28
2023-06-29T10:14:46.289Z,100163.25
2023-06-29T10:19:49.737Z,100158.13
2023-06-29T10:24:55.250Z,100157.06
2023-06-29T10:29:57.044Z,100157.16
2023-06-29T10:35:09.041Z,100157.91
2023-06-29T10:40:20.252Z,100157.88
2023-06-29T10:45:22.411Z,100156.41
2023-06-29T10:50:30.759Z,100151.69
2023-06-29T10:55:57.344Z,100150.78
2023-06-29T11:00:58.919Z,100150.69
2023-06-29T11:06:03.120Z,100144.63
2023-06-29T11:11:17.534Z,100141.72
2023-06-29T11:16:19.270Z,100141.78
2023-06-29T11:21:22.383Z,100137.91
2023-06-29T11:26:24.772Z,100140.50
2023-06-29T11:31:26.734Z,100133.09
2023-06-29T11:36:34.265Z,100134.06
2023-06-29T11:41:39.970Z,100134.22
2023-06-29T11:46:43.516Z,100136.97
2023-06-29T11:51:45.300Z,100131.47
2023-06-29T11:56:46.810Z,100128.75
2023-06-29T12:01:48.902Z,100121.44
2023-06-29T12:06:54.710Z,100114.41
2023-06-29T12:11:58.001Z,100107.44
2023-06-29T12:22:06.558Z,100089.75
2023-06-29T12:27:08.097Z,100092.44
2023-06-29T12:32:09.745Z,100087.06
2023-06-29T12:37:11.263Z,100083.00
2023-06-29T12:42:12.774Z,100067.03
2023-06-29T12:47:14.327Z,100068.41
2023-06-29T12:52:17.479Z,100065.88
2023-06-29T12:57:20.197Z,100066.63
2023-06-29T13:02:22.209Z,100065.41
2023-06-29T13:07:24.671Z,100064.25
2023-06-29T13:12:27.859Z,100058.22
2023-06-29T13:17:29.378Z,100057.69
2023-06-29T13:22:32.385Z,100061.13
2023-06-29T13:27:34.821Z,100057.78
2023-06-29T13:32:36.794Z,100049.97
2023-06-29T13:37:39.355Z,100043.34
2023-06-29T13:42:40.980Z,100040.84
2023-06-29T13:47:43.935Z,100033.25
2023-06-29T13:52:45.559Z,100034.72
2023-06-29T13:57:47.066Z,100031.53
2023-06-29T14:02:50.484Z,100030.34
2023-06-29T14:07:52.665Z,100035.28
2023-06-29T14:12:54.176Z,100024.03
2023-06-29T14:17:55.752Z,100024.03
2023-06-29T14:22:58.035Z,100019.56
2023-06-29T14:27:59.505Z,100012.53
2023-06-29T14:33:01.700Z,100014.78
2023-06-29T14:38:14.429Z,100005.78
2023-06-29T14:43:16.290Z,100010.00
2023-06-29T14:48:18.377Z,100012.97
2023-06-29T14:53:21.166Z,100004.53
2023-06-29T14:58:22.694Z,99999.84
2023-06-29T15:03:24.274Z,100003.28
2023-06-29T15:08:27.347Z,100004.94
2023-06-29T15:13:29.338Z,99995.97
2023-06-29T15:18:30.809Z,99993.28
2023-06-29T15:23:32.765Z,99984.19
2023-06-29T15:28:34.253Z,99983.38
2023-06-29T15:33:36.967Z,99986.66
2023-06-29T15:38:38.769Z,99984.47
2023-06-29T15:43:40.311Z,99986.75
2023-06-29T15:48:44.593Z,99978.31
2023-06-29T15:53:46.264Z,99975.88
2023-06-29T15:58:49.308Z,99974.25
2023-06-29T16:03:50.957Z,99967.81
2023-06-29T16:08:52.717Z,99960.59
2023-06-29T16:13:55.706Z,99946.97
2023-06-29T16:18:57.726Z,99948.38
2023-06-29T16:23:59.987Z,99944.38
2023-06-29T16:29:04.595Z,99939.28
2023-06-29T16:34:06.390Z,99926.34
2023-06-29T16:39:08.897Z,99934.75
2023-06-29T16:44:11.339Z,99922.78
2023-06-29T16:49:12.947Z,99923.78
2023-06-29T16:54:19.944Z,99915.19
2023-06-29T16:59:21.800Z,99920.22
2023-06-29T17:04:26.782Z,99920.75
2023-06-29T17:09:33.520Z,99919.66
2023-06-29T17:14:35.537Z,99915.84
2023-06-29T17:19:40.048Z,99921.53
2023-06-29T17:24:42.052Z,99928.25
2023-06-29T17:29:47.581Z,99927.22
2023-06-29T17:34:49.380Z,99921.53
2023-06-29T17:39:51.115Z,99924.81
2023-06-29T17:44:52.610Z,99924.69
2023-06-29T17:49:54.274Z,99936.31
2023-06-29T17:54:55.980Z,99935.66
2023-06-29T17:59:57.804Z,99932.22
2023-06-29T18:04:59.881Z,99932.25
2023-06-29T18:10:05.787Z,99929.13
2023-06-29T18:15:08.185Z,99929.63
2023-06-29T18:20:10.846Z,99925.09
2023-06-29T18:25:14.933Z,99936.88
2023-06-29T18:30:16.580Z,99927.06
2023-06-29T18:35:18.233Z,99939.66
2023-06-29T18:40:19.753Z,99933.94
2023-06-29T18:45:21.720Z,99935.41
2023-06-29T18:50:23.948Z,99935.91
2023-06-29T18:55:26.852Z,99937.72
2023-06-29T19:00:28.456Z,99929.88
2023-06-29T19:05:30.925Z,99934.25
2023-06-29T19:10:32.430Z,99928.00
2023-06-29T19:15:33.876Z,99926.13
2023-06-29T19:20:35.729Z,99923.34
2023-06-29T19:25:37.271Z,99921.56
2023-06-29T19:30:38.804Z,99937.78
2023-06-29T19:35:40.295Z,99935.44
2023-06-29T19:40:41.892Z,99945.47
2023-06-29T19:45:43.654Z,99940.31
2023-06-29T19:50:45.911Z,99949.00
2023-06-29T19:55:47.562Z,99953.25
2023-06-29T20:00:49.242Z,99953.34
2023-06-29T20:05:50.777Z,99957.00
2023-06-29T20:10:53.396Z,99953.00
2023-06-29T20:15:55.058Z,99949.50
2023-06-29T20:20:56.824Z,99952.94
2023-06-29T20:25:58.330Z,99946.50
2023-06-29T20:30:59.894Z,99944.25
2023-06-29T20:36:01.383Z,99943.66
2023-06-29T20:41:02.854Z,99948.63
2023-06-29T20:46:05.358Z,99940.50
2023-06-29T20:51:16.915Z,99933.72
2023-06-29T20:56:20.736Z,99936.88
2023-06-29T21:01:22.379Z,99924.72
2023-06-29T21:06:23.970Z,99942.28
2023-06-29T21:11:25.621Z,99938.66
2023-06-29T21:16:27.225Z,99936.50
2023-06-29T21:21:29.519Z,99933.81
2023-06-29T21:26:31.668Z,99930.97
2023-06-29T21:31:34.891Z,99931.38
2023-06-29T21:36:36.718Z,99932.88
2023-06-29T21:41:38.437Z,99926.03
2023-06-29T21:46:39.952Z,99935.63
2023-06-29T21:51:41.486Z,99934.13
2023-06-29T21:56:42.958Z,99930.16
2023-06-29T22:01:44.426Z,99932.06
2023-06-29T22:06:45.911Z,99934.00
2023-06-29T22:11:47.416Z,99931.81
2023-06-29T22:16:48.905Z,99931.19
2023-06-29T22:21:52.354Z,99932.94
2023-06-29T22:26:53.846Z,99921.59
2023-06-29T22:31:55.288Z,99927.72
2023-06-29T22:36:56.808Z,99924.31
2023-06-29T22:41:58.367Z,99913.50
2023-06-29T22:46:59.845Z,99916.19
2023-06-29T22:52:01.476Z,99915.22
2023-06-29T22:57:03.097Z,99910.69
2023-06-29T23:02:04.772Z,99909.50
2023-06-29T23:07:06.686Z,99903.31
2023-06-29T23:12:08.891Z,99888.66
2023-06-29T23:17:10.405Z,99898.34
2023-06-29T23:22:11.892Z,99892.59
2023-06-29T23:27:13.564Z,99885.91
2023-06-29T23:32:15.057Z,99897.97
2023-06-29T23:37:16.526Z,99900.88
2023-06-29T23:42:18.448Z,99903.53
2023-06-29T23:47:19.906Z,99898.25
2023-06-29T23:52:21.411Z,99890.81
2023-06-29T23:57:23.054Z,99887.09
